Airfield :







YOU CAN JOIN US ON...

 
LOGIN :

Register | Disclaimer

   EN    FR    IT 

 









Legend :    VFR   Marginal VFR   IFR   Intensive IFR   Very Intensive IFR
Visi :
Ceiling :
>= 8 km
>= 3000ft
5 to 8 km
1000 to 3000 ft
1500m to 5 km
500 to 1000 ft
800 to 1500m
200 to 500 ft
< 800m
< 200 ft
Symbols :   Thunderstorms  Fog  Heavy snow  Heavy precipitations  Wind > 20 kt






- Airport Elevation : 228 ft


KFSO - Franklin County State

CURRENT METAR :
  • 231835Z AUTO 27003KT 10SM BKN080 OVC090 16/05 A2983 RMK AO2 T01640047

EXPIRED METARs :
  • 231816Z AUTO 27004KT 10SM OVC080 17/04 A2983 RMK AO2 T01690043
  • 231755Z AUTO 00000KT 10SM BKN080 16/04 A2983 RMK AO2 T01610044 10174 20122
  • 231735Z AUTO 23005KT 10SM SCT060 BKN080 16/05 A2983 RMK AO2 T01630046
  • 231715Z AUTO 27005KT 10SM BKN060 17/05 A2983 RMK AO2 T01660045
  • 231655Z AUTO 26006KT 10SM SCT049 17/05 A2983 RMK AO2 T01720045
  • 231635Z AUTO 26007KT 210V290 10SM SCT042 SCT047 17/06 A2983 RMK AO2 T01700055
  • 231616Z AUTO 26005KT 10SM CLR 17/08 A2983 RMK AO2 T01670077
  • 231555Z AUTO 25003KT 10SM CLR 16/09 A2983 RMK AO2 T01580092

TAF N/A



MET'MAP, your aeronautical weather chart ! - Copyright ORBIFLY December 2007 - Disclaimer

ORBIFLY MET'MAP TEAM :

Programming & Development : Alexandra Zaïnal
Concept & Development : Baudouin d'Aumeries
Co-Development & Prog : Marc-Olivier Méhu
Technical & hardware support : Manuel Goepfert

Contact : metmap@orbifly.com




SOURCES & CREDITS :

   NOAA